Bonpland, Argentina
Current Conditions -  °F | °C
As of 6:00 PM on Friday 19 Dec 2014 (Local Time) from SARL Reporting Station
Clear Clear  
Wind Chill: 30°   Ceiling: Unl
Heat Index: 30°   Visibility: 6mi
Dew Point: 17°   Wind: 9mph
Humidity: 45%   Direction: 70°ENE
Pressure: 29.62"   Gusts: NA
Location:  29.82°S, 57.43°W
Report Text: SARL 192100Z 07008KT CAVOK 30/17 Q1003
Loading
Personal Weather Stations






























Interactive Weather Map New forecast layout! Learn more

10-Day Weather Forecast

Advertisements
Track Severe Weather on mobile